Time;durP1;ratioP1;P1;durP2;ratioP2;P2;SDS_P1;SDS_P2;PMS_P1;PMS_P2;Temp;Humidity;BMP_temperature;BMP_pressure;BME280_temperature;BME280_humidity;BME280_pressure;Samples;Min_cycle;Max_cycle;Signal;HPM_P1;HPM_P2
2019/04/17 10:57:18;;;;;;;26.9;20.8;;;;;;;21.08;33.34668;966.2583;;;;
2019/04/17 11:10:31;;;;;;;28.3;22;;;;;;;22.87;29.91309;966.1691;;;;
2019/04/17 11:13:01;;;;;;;22.3;17.7;;;;;;;23.17;28.79004;966.1208;;;;
2019/04/17 11:18:14;;;;;;;27.1;21.3;;;;;;;23.66;27.08105;966.1433;;;;
2019/04/17 11:20:31;;;;;;;22.9;19.1;;;;;;;23.89;25.9502;966.08;;;;
2019/04/17 11:22:48;;;;;;;19.4;16.3;;;;;;;24.03;26.25684;966.1479;;;;
2019/04/17 11:25:10;;;;;;;22.4;19.2;;;;;;;24.33;24.55566;966.0854;;;;
2019/04/17 11:27:36;;;;;;;25;20.6;;;;;;;24.47;25.86426;966.1111;;;;
2019/04/17 11:30:23;;;;;;;24.6;20.3;;;;;;;24.49;24.82715;966.0589;;;;
2019/04/17 11:32:44;;;;;;;21.6;18.6;;;;;;;24.55;24.62695;966.0372;;;;
2019/04/17 11:35:14;;;;;;;26.1;20.4;;;;;;;24.6;24.6543;966.1067;;;;
2019/04/17 11:37:39;;;;;;;19.9;17.8;;;;;;;24.67;25.09961;965.9908;;;;
2019/04/17 11:40:04;;;;;;;21.8;18.8;;;;;;;24.93;24.1582;965.9687;;;;
2019/04/17 11:43:51;;;;;;;26;20.9;;;;;;;25.17;23.51367;965.9461;;;;
2019/04/17 11:46:29;;;;;;;21.9;18.2;;;;;;;25.24;23.82813;965.9033;;;;
2019/04/17 11:48:59;;;;;;;27.6;20.8;;;;;;;25.39;22.31641;965.931;;;;
2019/04/17 11:54:16;;;;;;;27.7;20.4;;;;;;;25.4;22.79492;965.855;;;;
2019/04/17 12:05:09;;;;;;;28.5;22.4;;;;;;;25.6;21.97949;965.7994;;;;
2019/04/17 12:10:16;;;;;;;26.6;22;;;;;;;25.67;21.45605;965.8756;;;;
2019/04/17 12:12:40;;;;;;;28;21.3;;;;;;;25.82;21.41602;965.8536;;;;
2019/04/17 12:18:05;;;;;;;25.7;20.7;;;;;;;25.82;21.66699;965.8576;;;;
2019/04/17 12:26:58;;;;;;;44.5;29.6;;;;;;;26.27;20.52637;965.8762;;;;
2019/04/17 12:29:12;;;;;;;20.3;17.6;;;;;;;26.09;19.70215;965.8549;;;;
2019/04/17 12:31:40;;;;;;;26.3;22;;;;;;;26.14;19.35742;965.8681;;;;
2019/04/17 12:34:09;;;;;;;24.3;21.6;;;;;;;26.15;19.75293;965.7658;;;;
2019/04/17 12:36:34;;;;;;;25;22.3;;;;;;;26.35;19.4375;965.7762;;;;
2019/04/17 12:41:47;;;;;;;47.5;22.2;;;;;;;26.45;18.84277;965.696;;;;
2019/04/17 12:44:15;;;;;;;20.2;17.3;;;;;;;26.56;19.06348;965.7469;;;;
2019/04/17 12:46:50;;;;;;;18.3;15;;;;;;;26.45;18.06348;965.6658;;;;
2019/04/17 12:49:14;;;;;;;19.8;16.5;;;;;;;26.55;17.9834;965.6669;;;;
2019/04/17 12:52:01;;;;;;;19.4;16;;;;;;;26.58;20.38379;965.6353;;;;
2019/04/17 12:57:30;;;;;;;18.3;15.8;;;;;;;26.61;17.8291;965.6038;;;;
2019/04/17 12:59:46;;;;;;;20.1;14.9;;;;;;;26.5;16.72168;965.587;;;;
2019/04/17 13:02:42;;;;;;;20.6;16.9;;;;;;;26.59;18.11719;965.5842;;;;
2019/04/17 13:04:41;;;;;;;21.4;16.6;;;;;;;26.7;17.74902;965.5878;;;;
2019/04/17 13:07:30;;;;;;;17.9;15.2;;;;;;;26.82;17.82617;965.5532;;;;
2019/04/17 13:10:12;;;;;;;20.5;15;;;;;;;26.85;18.58301;965.5781;;;;
2019/04/17 13:12:54;;;;;;;15.6;13.6;;;;;;;27.14;16.80566;965.5231;;;;
2019/04/17 13:15:32;;;;;;;18.9;14;;;;;;;27.13;17.38184;965.4495;;;;
2019/04/17 13:17:42;;;;;;;16.7;14.2;;;;;;;27.12;15.84375;965.4877;;;;
2019/04/17 13:20:18;;;;;;;14.7;13.2;;;;;;;27.17;17.14258;965.4613;;;;
2019/04/17 13:22:43;;;;;;;16;12.9;;;;;;;27.11;16.27539;965.4328;;;;
2019/04/17 13:25:08;;;;;;;15.8;12;;;;;;;27;17.67676;965.4068;;;;
2019/04/17 13:27:33;;;;;;;14.6;12;;;;;;;27.05;16.41797;965.3948;;;;
2019/04/17 13:30:14;;;;;;;14;12.6;;;;;;;27.06;15.34961;965.3752;;;;
2019/04/17 13:32:48;;;;;;;13.2;11.8;;;;;;;27.15;15.61621;965.3378;;;;
2019/04/17 13:35:40;;;;;;;13.4;10.6;;;;;;;26.86;16.8916;965.41;;;;
2019/04/17 13:37:59;;;;;;;20.9;16.7;;;;;;;26.93;15.93359;965.4072;;;;
2019/04/17 13:40:29;;;;;;;63.2;56.1;;;;;;;27.06;14.97656;965.4014;;;;
2019/04/17 13:43:21;;;;;;;13.3;9.7;;;;;;;27.17;15.00488;965.3641;;;;
2019/04/17 13:48:14;;;;;;;11.8;10.3;;;;;;;27.37;14.09766;965.3904;;;;
2019/04/17 13:50:28;;;;;;;11.3;10.1;;;;;;;27;14.43457;965.3411;;;;
2019/04/17 13:53:10;;;;;;;32.7;11.6;;;;;;;27.03;15.49219;965.3318;;;;
2019/04/17 13:55:25;;;;;;;12.6;10;;;;;;;27.19;16.65137;965.3219;;;;
2019/04/17 13:57:52;;;;;;;10.7;9.6;;;;;;;27.47;14.40137;965.2793;;;;
2019/04/17 14:00:28;;;;;;;12.9;9.5;;;;;;;27.03;14.85645;965.2831;;;;
2019/04/17 14:02:58;;;;;;;12.4;10.8;;;;;;;27.07;15.66211;965.2634;;;;
2019/04/17 14:05:45;;;;;;;13.2;11.6;;;;;;;27;16.01953;965.2714;;;;
2019/04/17 14:08:05;;;;;;;14.2;11.2;;;;;;;27.01;14.07422;965.274;;;;
2019/04/17 14:14:38;;;;;;;12.3;10.2;;;;;;;26.84;15.37793;965.251;;;;
2019/04/17 14:17:23;;;;;;;14.7;10.5;;;;;;;26.62;14.38672;965.2072;;;;
2019/04/17 14:20:07;;;;;;;20.2;13.6;;;;;;;26.79;15.05176;965.1775;;;;
2019/04/17 14:29:49;;;;;;;111.3;15.3;;;;;;;27.09;13.78906;965.1819;;;;
2019/04/17 14:32:09;;;;;;;17.2;6.9;;;;;;;27.45;15.19434;965.2626;;;;
2019/04/17 14:34:45;;;;;;;9.7;7;;;;;;;27.73;13.77246;965.2383;;;;
2019/04/17 14:37:07;;;;;;;8.7;7.2;;;;;;;27.95;12.94922;965.1667;;;;
2019/04/17 14:39:36;;;;;;;10.6;9;;;;;;;27.82;13.7627;965.1113;;;;
2019/04/17 14:42:01;;;;;;;9.5;8.3;;;;;;;28.08;12.85645;965.0695;;;;
2019/04/17 14:44:42;;;;;;;71.7;64.3;;;;;;;28.33;12.85156;965.1161;;;;
2019/04/17 14:55:31;;;;;;;10.2;8.7;;;;;;;28.34;13.3457;965.0305;;;;
2019/04/17 14:57:52;;;;;;;12;10;;;;;;;28.32;13.56152;964.9897;;;;
2019/04/17 15:03:05;;;;;;;10.3;8.7;;;;;;;27.89;13.74121;965.0555;;;;
2019/04/17 15:05:54;;;;;;;11.1;8.4;;;;;;;27.87;12.51367;965.0636;;;;
2019/04/17 15:08:38;;;;;;;12.4;9.2;;;;;;;27.78;15.22949;965.0801;;;;
2019/04/17 15:13:54;;;;;;;14.2;10.9;;;;;;;27.91;13.59766;965.0739;;;;
2019/04/17 15:15:39;;;;;;;12.4;10.7;;;;;;;28.2;14.61719;965.0569;;;;
2019/04/17 15:18:08;;;;;;;16.3;11.6;;;;;;;28.35;14.00781;965.0555;;;;
2019/04/17 15:20:32;;;;;;;15;11.4;;;;;;;28.45;13.80664;965.0767;;;;
2019/04/17 15:23:08;;;;;;;14.1;12.6;;;;;;;28.4;13.67285;965.081;;;;
2019/04/17 15:25:36;;;;;;;13.8;12.4;;;;;;;28.08;14.85449;965.0734;;;;
2019/04/17 15:28:05;;;;;;;14.2;12.7;;;;;;;28.13;13.97754;965.0862;;;;
2019/04/17 15:30:34;;;;;;;15.5;12.1;;;;;;;28.26;15.07715;965.0854;;;;
2019/04/17 15:33:06;;;;;;;14.2;10.9;;;;;;;28.36;14.33398;965.1014;;;;
2019/04/17 15:35:34;;;;;;;58.2;50.3;;;;;;;28.53;15.11035;965.0797;;;;
2019/04/17 15:38:21;;;;;;;26.9;22.9;;;;;;;28.46;14.65039;965.0477;;;;
2019/04/17 15:41:08;;;;;;;15.7;11.6;;;;;;;28.3;14.03027;965.1914;;;;
2019/04/17 15:43:50;;;;;;;16.4;11.4;;;;;;;28.4;14.56445;965.164;;;;
2019/04/17 15:46:43;;;;;;;13.8;10.9;;;;;;;28.23;13.10156;965.1606;;;;
2019/04/17 15:49:07;;;;;;;13.4;11.3;;;;;;;28.08;13.19336;965.1788;;;;
2019/04/17 15:51:51;;;;;;;13.5;11.1;;;;;;;28.19;13.99121;965.2031;;;;
2019/04/17 15:54:17;;;;;;;15;10.5;;;;;;;28.17;14.45996;965.1752;;;;
2019/04/17 15:56:49;;;;;;;15.7;12.5;;;;;;;27.96;13.58691;965.1522;;;;
2019/04/17 15:59:19;;;;;;;14.1;12.1;;;;;;;27.77;14.01465;965.1566;;;;
2019/04/17 16:01:59;;;;;;;14.4;11.8;;;;;;;27.61;13.31152;965.2589;;;;
2019/04/17 16:04:32;;;;;;;14.5;12.2;;;;;;;27.37;14.11035;965.1669;;;;
2019/04/17 16:07:39;;;;;;;14.4;12.7;;;;;;;26.98;14.20508;965.1707;;;;
2019/04/17 16:11:24;;;;;;;17.7;13.1;;;;;;;26.76;14.43945;965.1647;;;;
2019/04/17 16:12:47;;;;;;;14.8;12.2;;;;;;;26.69;15.46875;965.1464;;;;
2019/04/17 16:15:14;;;;;;;13.8;12;;;;;;;26.37;14.70215;965.1646;;;;
2019/04/17 16:17:41;;;;;;;12.1;10.8;;;;;;;26.34;15.24023;965.1816;;;;
2019/04/17 16:20:51;;;;;;;10.8;8.5;;;;;;;26.27;17.8877;965.2419;;;;
2019/04/17 16:22:48;;;;;;;14.5;11.1;;;;;;;26.22;15.48828;965.2025;;;;
2019/04/17 16:25:16;;;;;;;15.2;11;;;;;;;25.75;14.41797;965.2317;;;;
2019/04/17 16:27:51;;;;;;;14.8;10.8;;;;;;;25.36;15.60254;965.2508;;;;
2019/04/17 16:30:39;;;;;;;11.9;9.2;;;;;;;25.06;17.66113;965.2605;;;;
2019/04/17 16:32:59;;;;;;;14.9;11;;;;;;;24.91;16.21973;965.2651;;;;
2019/04/17 16:38:07;;;;;;;13.1;10.7;;;;;;;24.28;15.63574;965.1611;;;;
2019/04/17 16:41:21;;;;;;;12.7;10.2;;;;;;;24.11;16.65625;965.207;;;;
2019/04/17 16:43:21;;;;;;;12.5;9.8;;;;;;;23.87;17.76855;965.1856;;;;
2019/04/17 16:45:30;;;;;;;12.2;10.2;;;;;;;23.64;17.46094;965.244;;;;
2019/04/17 16:47:46;;;;;;;14.5;11.2;;;;;;;23.37;16.4502;965.245;;;;
2019/04/17 16:54:02;;;;;;;15.3;10.5;;;;;;;22.91;22.69238;965.2611;;;;
2019/04/17 16:56:26;;;;;;;22.7;11.8;;;;;;;22.92;22.32422;965.2428;;;;
2019/04/17 16:58:53;;;;;;;22.5;12.1;;;;;;;22.97;21.85059;965.2263;;;;
2019/04/17 17:01:29;;;;;;;73.6;44.3;;;;;;;23.04;20.48535;965.2364;;;;
2019/04/17 17:03:54;;;;;;;15.7;12;;;;;;;23.06;19.59277;965.2902;;;;
2019/04/17 17:06:33;;;;;;;35.4;19.3;;;;;;;23.04;19.34277;965.2534;;;;
2019/04/17 17:09:14;;;;;;;12.6;10;;;;;;;22.91;20.20605;965.3133;;;;
2019/04/17 17:11:44;;;;;;;14;10.5;;;;;;;22.79;19.93848;965.2414;;;;
2019/04/17 17:14:13;;;;;;;13.2;11.6;;;;;;;22.68;17.53125;965.2109;;;;
2019/04/17 17:16:40;;;;;;;15;11.5;;;;;;;22.45;17.33203;965.2994;;;;
2019/04/17 17:19:03;;;;;;;13.1;11.2;;;;;;;22.19;18.03418;965.3152;;;;
2019/04/17 17:21:28;;;;;;;13.9;11.8;;;;;;;21.97;18.44043;965.3181;;;;
2019/04/17 17:23:57;;;;;;;56.2;47.9;;;;;;;21.77;18.21875;965.285;;;;
2019/04/17 17:26:29;;;;;;;25.5;21.9;;;;;;;21.57;18.51953;965.39;;;;
2019/04/17 17:29:12;;;;;;;14.3;11;;;;;;;21.38;20.6582;965.3618;;;;
2019/04/17 17:31:34;;;;;;;13.6;10.5;;;;;;;21.22;19.13281;965.4255;;;;
2019/04/17 17:40:16;;;;;;;14.3;11.4;;;;;;;20.51;19.91895;965.502;;;;
2019/04/17 17:42:42;;;;;;;16.4;11.6;;;;;;;20.27;20.08496;965.551;;;;
2019/04/17 17:45:17;;;;;;;17.2;11.5;;;;;;;20.15;20.65918;965.4651;;;;
2019/04/17 17:48:02;;;;;;;15.4;11.2;;;;;;;19.87;20.70508;965.5664;;;;
2019/04/17 17:50:10;;;;;;;15.8;11.7;;;;;;;19.82;21.12793;965.5614;;;;
